createdAt,value
2022-10-01T00:00:31.752Z,91.55
2022-10-01T00:01:33.780Z,91.80
2022-10-01T00:02:37.530Z,92.15
2022-10-01T00:03:40.469Z,92.62
2022-10-01T00:04:42.269Z,92.72
2022-10-01T00:05:44.720Z,92.76
2022-10-01T00:06:46.726Z,93.88
2022-10-01T00:07:48.641Z,93.81
2022-10-01T00:08:50.585Z,93.71
2022-10-01T00:09:52.385Z,94.15
2022-10-01T00:10:55.342Z,94.16
2022-10-01T00:11:57.714Z,94.76
2022-10-01T00:12:59.715Z,94.83
2022-10-01T00:14:01.606Z,95.00
2022-10-01T00:15:06.253Z,95.13
2022-10-01T00:16:11.917Z,94.92
2022-10-01T00:17:14.331Z,95.07
2022-10-01T00:18:16.357Z,94.78
2022-10-01T00:19:18.368Z,94.74
2022-10-01T00:20:20.271Z,94.22
2022-10-01T00:21:25.558Z,94.33
2022-10-01T00:22:30.749Z,94.13
2022-10-01T00:23:32.861Z,94.00
2022-10-01T00:24:34.673Z,93.94
2022-10-01T00:25:36.858Z,93.57
2022-10-01T00:26:39.391Z,93.57
2022-10-01T00:27:46.087Z,93.17
2022-10-01T00:28:51.821Z,93.19
2022-10-01T00:29:54.658Z,93.35
2022-10-01T00:30:56.563Z,93.28
2022-10-01T00:31:58.586Z,92.45
2022-10-01T00:33:00.558Z,92.49
2022-10-01T00:34:03.020Z,92.69
2022-10-01T00:35:05.705Z,92.80
2022-10-01T00:36:09.867Z,93.08
2022-10-01T00:37:11.924Z,93.39
2022-10-01T00:38:13.741Z,93.38
2022-10-01T00:39:15.589Z,92.59
2022-10-01T00:40:20.932Z,92.59
2022-10-01T00:41:22.788Z,92.21
2022-10-01T00:42:26.240Z,91.98
2022-10-01T00:43:30.993Z,91.81
2022-10-01T00:44:36.807Z,91.65
2022-10-01T00:45:38.925Z,91.52
2022-10-01T00:46:44.560Z,91.56
2022-10-01T00:47:53.210Z,92.21
2022-10-01T00:49:01.543Z,92.30
2022-10-01T00:50:12.992Z,92.55
2022-10-01T00:51:15.430Z,92.47
2022-10-01T00:52:20.989Z,92.16
2022-10-01T00:53:24.997Z,91.99
2022-10-01T00:54:30.626Z,92.18
2022-10-01T00:55:36.822Z,92.44
2022-10-01T00:56:40.302Z,92.52
2022-10-01T00:57:43.554Z,92.18
2022-10-01T00:58:45.911Z,91.93
2022-10-01T00:59:50.896Z,92.14
2022-10-01T01:00:55.282Z,92.30
2022-10-01T01:01:57.775Z,92.27
2022-10-01T01:03:00.225Z,92.15
2022-10-01T01:04:02.341Z,92.11
2022-10-01T01:05:05.991Z,92.26
2022-10-01T01:06:09.375Z,92.12
2022-10-01T01:07:12.279Z,92.09
2022-10-01T01:08:15.246Z,92.27
2022-10-01T01:09:17.314Z,92.52
2022-10-01T01:10:31.903Z,92.69
2022-10-01T01:11:40.640Z,92.56
2022-10-01T01:13:04.788Z,92.29
2022-10-01T01:14:19.344Z,91.92
2022-10-01T01:15:31.049Z,91.60
2022-10-01T01:16:39.604Z,91.45
2022-10-01T01:18:03.689Z,91.38
2022-10-01T01:19:15.468Z,91.20
2022-10-01T01:20:21.283Z,91.11
2022-10-01T01:21:29.604Z,90.99
2022-10-01T01:22:34.566Z,90.86
2022-10-01T01:23:52.458Z,90.52
2022-10-01T01:25:10.070Z,91.09
2022-10-01T01:26:21.866Z,91.07
2022-10-01T01:27:27.473Z,91.34
2022-10-01T01:28:33.113Z,91.78
2022-10-01T01:29:44.839Z,92.02
2022-10-01T01:30:50.156Z,91.82
2022-10-01T01:31:55.897Z,91.87
2022-10-01T01:33:04.543Z,91.82
2022-10-01T01:34:10.203Z,91.34
2022-10-01T01:35:18.868Z,90.87
2022-10-01T01:36:30.424Z,90.50
2022-10-01T01:37:36.952Z,90.15
2022-10-01T01:38:42.561Z,89.77
2022-10-01T01:39:48.390Z,89.65
2022-10-01T01:40:53.127Z,89.48
2022-10-01T01:41:59.138Z,89.34
2022-10-01T01:43:04.796Z,89.25
2022-10-01T01:44:10.476Z,89.00
2022-10-01T01:45:16.093Z,88.76
2022-10-01T01:46:20.215Z,88.49
2022-10-01T01:47:24.884Z,88.41
2022-10-01T01:48:30.137Z,88.20
2022-10-01T01:49:33.640Z,88.21
2022-10-01T01:50:39.902Z,88.34
2022-10-01T01:51:54.255Z,88.20
2022-10-01T01:52:56.755Z,88.20
2022-10-01T01:53:59.544Z,87.95
2022-10-01T01:55:02.242Z,88.00
2022-10-01T01:56:07.392Z,88.14
2022-10-01T01:57:11.034Z,88.11
2022-10-01T01:58:13.572Z,88.20
2022-10-01T01:59:16.920Z,87.93
2022-10-01T02:00:19.705Z,87.93
2022-10-01T02:01:38.534Z,87.72
2022-10-01T02:02:44.392Z,87.70
2022-10-01T02:03:46.538Z,88.56
2022-10-01T02:04:54.806Z,88.84
2022-10-01T02:06:06.167Z,89.37
2022-10-01T02:07:31.619Z,89.83
2022-10-01T02:08:49.543Z,89.88
2022-10-01T02:09:57.972Z,89.60
2022-10-01T02:11:15.875Z,89.82
2022-10-01T02:13:59.449Z,90.18
2022-10-01T02:15:11.581Z,90.42
2022-10-01T02:16:44.631Z,90.51
2022-10-01T02:18:14.918Z,90.46
2022-10-01T02:19:30.208Z,90.09
2022-10-01T02:20:35.846Z,90.51
2022-10-01T02:21:40.770Z,91.51
2022-10-01T02:23:01.870Z,91.49
2022-10-01T02:24:27.273Z,92.31
2022-10-01T02:25:33.052Z,92.47
2022-10-01T02:26:37.526Z,92.72
2022-10-01T02:27:43.214Z,92.58
2022-10-01T02:28:49.028Z,92.58
2022-10-01T02:29:55.143Z,92.52
2022-10-01T02:30:59.861Z,92.56
2022-10-01T02:32:02.090Z,92.60
2022-10-01T02:33:06.891Z,92.70
2022-10-01T02:34:12.827Z,92.77
2022-10-01T02:35:17.992Z,93.47
2022-10-01T02:36:21.547Z,93.57
2022-10-01T02:37:26.423Z,93.60
2022-10-01T02:38:30.297Z,93.64
2022-10-01T02:39:34.781Z,93.76
2022-10-01T02:40:40.583Z,93.78
2022-10-01T02:41:45.410Z,93.95
2022-10-01T02:42:53.814Z,93.83
2022-10-01T02:44:02.512Z,93.67
2022-10-01T02:45:06.553Z,93.56
2022-10-01T02:46:18.947Z,93.59
2022-10-01T02:47:24.657Z,93.69
2022-10-01T02:48:26.701Z,94.09
2022-10-01T02:49:31.112Z,94.21
2022-10-01T02:51:59.491Z,94.51
2022-10-01T02:53:08.126Z,94.27
2022-10-01T02:55:46.978Z,95.83
2022-10-01T02:56:54.240Z,95.92
2022-10-01T02:57:56.383Z,96.08
2022-10-01T02:58:58.301Z,96.28
2022-10-01T03:00:03.146Z,96.31
2022-10-01T03:01:05.326Z,95.97
2022-10-01T03:02:07.664Z,96.05
2022-10-01T03:03:09.783Z,96.20
2022-10-01T03:04:11.646Z,96.17
2022-10-01T03:05:14.512Z,96.27
2022-10-01T03:06:16.894Z,96.28
2022-10-01T03:07:18.736Z,96.20
2022-10-01T03:08:20.583Z,96.24
2022-10-01T03:09:22.334Z,96.01
2022-10-01T03:10:24.108Z,95.71
2022-10-01T03:11:26.908Z,95.70
2022-10-01T03:12:29.603Z,95.58
2022-10-01T03:13:31.580Z,95.53
2022-10-01T03:14:33.420Z,95.49
2022-10-01T03:15:36.135Z,95.28
2022-10-01T03:16:39.239Z,95.83
2022-10-01T03:17:41.406Z,95.96
2022-10-01T03:18:43.257Z,95.65
2022-10-01T03:19:45.310Z,95.71
2022-10-01T03:20:47.545Z,95.56
2022-10-01T03:21:50.066Z,95.56
2022-10-01T03:22:51.977Z,95.53
2022-10-01T03:23:54.967Z,95.52
2022-10-01T03:24:57.915Z,95.84
2022-10-01T03:26:00.121Z,95.90
2022-10-01T03:27:02.039Z,96.49
2022-10-01T03:28:04.942Z,96.42
2022-10-01T03:29:06.871Z,96.43
2022-10-01T03:30:11.135Z,96.30
2022-10-01T03:31:13.189Z,96.34
2022-10-01T03:32:16.479Z,96.57
2022-10-01T03:33:18.379Z,96.35
2022-10-01T03:34:21.172Z,96.46
2022-10-01T03:35:22.971Z,96.84
2022-10-01T03:36:24.721Z,98.94
2022-10-01T03:37:26.714Z,98.94
2022-10-01T03:38:29.154Z,99.02
2022-10-01T03:39:31.262Z,99.75
2022-10-01T03:40:33.187Z,100.00
2022-10-01T03:41:36.508Z,100.00
2022-10-01T03:42:38.860Z,100.00
2022-10-01T03:43:40.667Z,100.00
2022-10-01T03:44:43.248Z,100.00
2022-10-01T03:45:45.670Z,100.00
2022-10-01T03:46:48.247Z,100.00
2022-10-01T03:47:54.178Z,100.00
2022-10-01T03:48:57.023Z,100.00
2022-10-01T03:49:58.928Z,100.00
2022-10-01T03:51:00.696Z,100.00
2022-10-01T03:52:04.123Z,100.00
2022-10-01T03:53:06.117Z,100.00
2022-10-01T03:54:08.659Z,100.00
2022-10-01T03:55:10.447Z,100.00
2022-10-01T03:56:13.416Z,100.00
2022-10-01T03:57:15.282Z,100.00
2022-10-01T03:58:18.285Z,100.00
2022-10-01T03:59:21.345Z,100.00
2022-10-01T04:00:23.829Z,100.00
2022-10-01T04:01:26.066Z,100.00
2022-10-01T04:02:28.703Z,100.00
2022-10-01T04:03:31.291Z,100.00
2022-10-01T04:04:33.205Z,100.00
2022-10-01T04:05:34.911Z,100.00
2022-10-01T04:06:36.770Z,100.00
2022-10-01T04:07:40.703Z,100.00
2022-10-01T04:08:42.757Z,100.00
2022-10-01T04:09:44.675Z,100.00
2022-10-01T04:10:46.933Z,100.00
2022-10-01T04:11:48.719Z,100.00
2022-10-01T04:12:50.581Z,100.00
2022-10-01T04:13:52.579Z,100.00
2022-10-01T04:14:56.581Z,100.00
2022-10-01T04:15:58.389Z,100.00
2022-10-01T04:17:00.300Z,100.00
2022-10-01T04:18:02.118Z,100.00
2022-10-01T04:19:04.765Z,100.00
2022-10-01T04:20:13.052Z,100.00
2022-10-01T04:21:18.012Z,100.00
2022-10-01T04:22:19.846Z,100.00
2022-10-01T04:23:22.804Z,100.00
2022-10-01T04:24:24.727Z,100.00
2022-10-01T04:25:27.470Z,100.00
2022-10-01T04:26:29.308Z,100.00
2022-10-01T04:27:32.135Z,100.00
2022-10-01T04:28:34.319Z,100.00
2022-10-01T04:29:40.053Z,100.00
2022-10-01T04:30:43.566Z,100.00
2022-10-01T04:31:45.628Z,100.00
2022-10-01T04:32:47.459Z,100.00
2022-10-01T04:33:49.842Z,100.00
2022-10-01T04:34:51.628Z,100.00
2022-10-01T04:35:55.132Z,100.00
2022-10-01T04:36:57.137Z,100.00
2022-10-01T04:38:04.916Z,100.00
2022-10-01T04:39:06.752Z,100.00
2022-10-01T04:40:09.740Z,100.00
2022-10-01T04:41:12.111Z,100.00
2022-10-01T04:42:14.391Z,100.00
2022-10-01T04:43:16.214Z,100.00
2022-10-01T04:44:17.985Z,100.00
2022-10-01T04:45:19.861Z,100.00
2022-10-01T04:46:21.905Z,100.00
2022-10-01T04:47:23.824Z,100.00
2022-10-01T04:48:25.506Z,100.00
2022-10-01T04:49:27.297Z,100.00
2022-10-01T04:50:29.022Z,100.00
2022-10-01T04:51:30.758Z,100.00
2022-10-01T04:52:32.639Z,100.00
2022-10-01T04:53:34.732Z,100.00
2022-10-01T04:54:36.969Z,100.00
2022-10-01T04:55:38.999Z,100.00
2022-10-01T04:56:40.982Z,100.00
2022-10-01T04:57:43.428Z,100.00
2022-10-01T04:58:45.303Z,100.00
2022-10-01T04:59:48.067Z,100.00
2022-10-01T05:00:50.283Z,100.00
2022-10-01T05:01:53.095Z,100.00
2022-10-01T05:02:55.414Z,100.00
2022-10-01T05:03:57.861Z,100.00
2022-10-01T05:05:01.260Z,100.00
2022-10-01T05:06:03.495Z,100.00
2022-10-01T05:07:05.598Z,100.00
2022-10-01T05:08:07.938Z,100.00
2022-10-01T05:09:09.724Z,100.00
2022-10-01T05:10:16.453Z,100.00
2022-10-01T05:11:18.594Z,100.00
2022-10-01T05:12:24.472Z,100.00
2022-10-01T05:13:24.099Z,100.00
2022-10-01T05:14:25.993Z,100.00
2022-10-01T05:15:28.777Z,100.00
2022-10-01T05:16:30.806Z,100.00
2022-10-01T05:17:32.993Z,100.00
2022-10-01T05:18:34.994Z,100.00
2022-10-01T05:19:37.531Z,100.00
2022-10-01T05:20:40.002Z,100.00
2022-10-01T05:21:43.161Z,100.00
2022-10-01T05:22:46.294Z,100.00
2022-10-01T05:23:48.046Z,100.00
2022-10-01T05:24:49.893Z,100.00
2022-10-01T05:25:51.942Z,100.00
2022-10-01T05:26:53.952Z,100.00
2022-10-01T05:28:01.241Z,100.00
2022-10-01T05:29:03.746Z,100.00
2022-10-01T05:30:08.412Z,100.00
2022-10-01T05:31:11.811Z,100.00
2022-10-01T05:32:14.447Z,100.00
2022-10-01T05:33:16.381Z,100.00
2022-10-01T05:34:18.374Z,100.00
2022-10-01T05:35:20.329Z,100.00
2022-10-01T05:36:23.509Z,100.00
2022-10-01T05:37:25.873Z,100.00
2022-10-01T05:38:27.791Z,100.00
2022-10-01T05:39:30.364Z,100.00
2022-10-01T05:40:33.047Z,100.00
2022-10-01T05:41:35.316Z,100.00
2022-10-01T05:42:37.637Z,100.00
2022-10-01T05:43:39.648Z,100.00
2022-10-01T05:44:41.823Z,100.00
2022-10-01T05:45:44.172Z,100.00
2022-10-01T05:46:46.788Z,100.00
2022-10-01T05:47:58.594Z,100.00
2022-10-01T05:49:00.864Z,100.00
2022-10-01T05:50:03.412Z,100.00
2022-10-01T05:51:05.578Z,99.83
2022-10-01T05:52:08.314Z,99.87
2022-10-01T05:53:11.837Z,99.63
2022-10-01T05:54:13.934Z,99.59
2022-10-01T05:55:15.840Z,99.72
2022-10-01T05:56:18.345Z,99.50
2022-10-01T05:57:20.411Z,99.25
2022-10-01T05:58:22.376Z,99.06
2022-10-01T05:59:27.342Z,98.96
2022-10-01T06:00:29.003Z,98.71
2022-10-01T06:01:31.830Z,98.49
2022-10-01T06:02:34.399Z,98.13
2022-10-01T06:03:37.503Z,98.01
2022-10-01T06:04:41.267Z,98.07
2022-10-01T06:05:44.222Z,98.00
2022-10-01T06:06:47.454Z,97.36
2022-10-01T06:07:51.139Z,97.21
2022-10-01T06:08:53.539Z,97.08
2022-10-01T06:09:56.000Z,96.70
2022-10-01T06:10:59.221Z,96.65
2022-10-01T06:12:02.664Z,96.48
2022-10-01T06:13:05.113Z,96.08
2022-10-01T06:14:08.054Z,95.75
2022-10-01T06:15:10.938Z,95.89
2022-10-01T06:16:15.287Z,95.94
2022-10-01T06:17:17.395Z,95.99
2022-10-01T06:18:19.441Z,96.11
2022-10-01T06:19:21.247Z,95.93
2022-10-01T06:20:23.746Z,95.43
2022-10-01T06:21:26.956Z,95.45
2022-10-01T06:22:28.932Z,95.39
2022-10-01T06:23:30.915Z,95.08
2022-10-01T06:24:32.769Z,94.85
2022-10-01T06:25:34.750Z,94.65
2022-10-01T06:26:37.963Z,94.59
2022-10-01T06:27:40.019Z,94.57
2022-10-01T06:28:41.842Z,94.54
2022-10-01T06:29:45.938Z,94.24
2022-10-01T06:30:48.389Z,94.10
2022-10-01T06:31:50.400Z,94.28
2022-10-01T06:32:54.799Z,93.31
2022-10-01T06:33:57.157Z,92.94
2022-10-01T06:34:59.057Z,92.22
2022-10-01T06:36:03.135Z,91.58
2022-10-01T06:37:05.522Z,91.24
2022-10-01T06:38:07.696Z,91.37
2022-10-01T06:39:09.365Z,91.79
2022-10-01T06:40:11.873Z,92.02
2022-10-01T06:41:14.763Z,91.00
2022-10-01T06:42:16.581Z,90.49
2022-10-01T06:43:18.446Z,89.54
2022-10-01T06:44:21.143Z,89.54
2022-10-01T06:45:23.950Z,89.47
2022-10-01T06:46:26.133Z,89.47
2022-10-01T06:47:28.301Z,89.35
2022-10-01T06:48:34.308Z,89.46
2022-10-01T06:49:36.276Z,89.40
2022-10-01T06:50:38.993Z,89.55
2022-10-01T06:51:41.012Z,89.39
2022-10-01T06:52:43.061Z,89.59
2022-10-01T06:53:44.681Z,89.75
2022-10-01T06:54:48.248Z,89.75
2022-10-01T06:55:50.827Z,89.42
2022-10-01T06:56:52.854Z,89.69
2022-10-01T06:57:56.497Z,88.85
2022-10-01T06:58:59.376Z,88.85
2022-10-01T07:00:01.226Z,88.96
2022-10-01T07:01:03.156Z,89.10
2022-10-01T07:02:05.981Z,89.12
2022-10-01T07:03:16.754Z,89.19
2022-10-01T07:04:22.107Z,88.36
2022-10-01T07:05:26.266Z,86.98
2022-10-01T07:06:28.427Z,86.72
2022-10-01T07:07:37.006Z,86.32
2022-10-01T07:09:41.037Z,85.62
2022-10-01T07:10:43.502Z,86.82
2022-10-01T07:11:45.211Z,88.75
2022-10-01T07:12:48.321Z,85.18
2022-10-01T07:13:54.554Z,84.40
2022-10-01T07:14:56.007Z,84.20
2022-10-01T07:15:57.910Z,82.96
2022-10-01T07:17:00.133Z,85.28
2022-10-01T07:18:03.889Z,81.70
2022-10-01T07:19:06.556Z,80.91
2022-10-01T07:20:08.966Z,81.21
2022-10-01T07:21:11.177Z,80.23
2022-10-01T07:22:13.767Z,80.84
2022-10-01T07:23:16.765Z,79.63
2022-10-01T07:24:19.512Z,79.57
2022-10-01T07:25:26.929Z,79.47
2022-10-01T07:26:29.445Z,79.34
2022-10-01T07:27:31.235Z,79.36
2022-10-01T07:28:33.499Z,78.53
2022-10-01T07:29:35.346Z,77.75
2022-10-01T07:30:38.761Z,77.63
2022-10-01T07:31:40.724Z,75.71
2022-10-01T07:32:47.914Z,76.10
2022-10-01T07:33:53.896Z,74.67
2022-10-01T07:34:55.952Z,74.47
2022-10-01T07:36:03.792Z,74.38
2022-10-01T07:37:06.830Z,74.41
2022-10-01T07:38:09.145Z,73.75
2022-10-01T07:39:12.437Z,73.03
2022-10-01T07:40:15.554Z,73.36
2022-10-01T07:41:17.978Z,72.16
2022-10-01T07:42:20.569Z,72.66
2022-10-01T07:43:23.775Z,71.89
2022-10-01T07:44:25.925Z,71.77
2022-10-01T07:45:28.103Z,72.44
2022-10-01T07:46:34.503Z,72.09
2022-10-01T07:47:34.789Z,71.59
2022-10-01T07:48:36.773Z,71.46
2022-10-01T07:49:40.698Z,71.55
2022-10-01T07:50:43.599Z,70.95
2022-10-01T07:51:45.481Z,71.37
2022-10-01T07:52:56.946Z,70.36
2022-10-01T07:53:58.813Z,70.69
2022-10-01T07:55:00.824Z,71.30
2022-10-01T07:56:04.153Z,69.76
2022-10-01T07:57:12.805Z,69.63
2022-10-01T07:58:12.539Z,68.96
2022-10-01T07:59:15.232Z,70.03
2022-10-01T08:00:17.660Z,68.73
2022-10-01T08:01:19.585Z,68.99
2022-10-01T08:02:21.604Z,68.71
2022-10-01T08:03:27.691Z,70.45
2022-10-01T08:04:30.389Z,73.65
2022-10-01T08:05:34.864Z,70.51
2022-10-01T08:06:37.828Z,70.26
2022-10-01T08:07:40.800Z,69.24
2022-10-01T08:08:42.978Z,69.62
2022-10-01T08:09:45.208Z,69.43
2022-10-01T08:10:48.706Z,68.97
2022-10-01T08:11:50.811Z,68.87
2022-10-01T08:13:01.161Z,68.30
2022-10-01T08:14:05.289Z,68.39
2022-10-01T08:16:20.314Z,68.67
2022-10-01T08:17:24.971Z,68.58
2022-10-01T08:18:26.035Z,68.32
2022-10-01T08:19:27.977Z,68.78
2022-10-01T08:20:31.459Z,67.37
2022-10-01T08:21:34.065Z,67.38
2022-10-01T08:22:41.700Z,67.38
2022-10-01T08:23:40.886Z,67.24
2022-10-01T08:24:42.676Z,66.72
2022-10-01T08:25:46.049Z,68.62
2022-10-01T08:26:52.730Z,67.01
2022-10-01T08:27:55.164Z,66.67
2022-10-01T08:28:57.288Z,66.53
2022-10-01T08:29:59.990Z,66.56
2022-10-01T08:31:06.810Z,67.10
2022-10-01T08:32:10.061Z,66.80
2022-10-01T08:33:13.370Z,66.93
2022-10-01T08:34:16.078Z,67.81
2022-10-01T08:35:19.931Z,66.33
2022-10-01T08:36:22.245Z,66.03
2022-10-01T08:37:26.515Z,66.32
2022-10-01T08:38:29.225Z,70.37
2022-10-01T08:39:31.153Z,66.41
2022-10-01T08:40:34.872Z,64.92
2022-10-01T08:43:01.601Z,65.60
2022-10-01T08:44:07.018Z,65.36
2022-10-01T08:45:16.225Z,65.76
2022-10-01T08:46:22.151Z,66.15
2022-10-01T08:47:33.739Z,65.07
2022-10-01T08:48:57.507Z,65.52
2022-10-01T08:50:04.836Z,65.65
2022-10-01T08:51:27.535Z,65.54
2022-10-01T08:52:33.116Z,65.05
2022-10-01T08:53:56.391Z,65.96
2022-10-01T08:55:17.170Z,66.44
2022-10-01T08:56:26.129Z,65.67
2022-10-01T08:57:41.761Z,65.51
2022-10-01T08:58:48.241Z,65.14
2022-10-01T08:59:59.267Z,65.32
2022-10-01T09:01:01.469Z,64.79
2022-10-01T09:02:12.718Z,64.89
2022-10-01T09:03:18.216Z,64.65
2022-10-01T09:04:23.139Z,64.17
2022-10-01T09:05:53.906Z,64.43
2022-10-01T09:08:21.807Z,64.83
2022-10-01T09:09:33.651Z,65.12
2022-10-01T09:10:48.859Z,64.78
2022-10-01T09:12:21.025Z,64.62
2022-10-01T09:13:50.093Z,64.43
2022-10-01T09:15:15.865Z,64.51
2022-10-01T09:16:30.902Z,64.82
2022-10-01T09:17:48.797Z,66.55
2022-10-01T09:19:03.991Z,64.22
2022-10-01T09:20:25.077Z,66.76
2022-10-01T09:21:47.947Z,65.86
2022-10-01T09:23:12.353Z,65.26
2022-10-01T09:24:17.639Z,64.77
2022-10-01T09:25:24.285Z,67.20
2022-10-01T09:26:26.199Z,66.61
2022-10-01T09:27:28.012Z,63.85
2022-10-01T09:28:34.718Z,63.85
2022-10-01T09:29:40.458Z,63.91
2022-10-01T09:30:46.052Z,65.30
2022-10-01T09:31:50.576Z,64.13
2022-10-01T09:32:55.649Z,62.87
2022-10-01T09:34:15.754Z,62.81
2022-10-01T09:35:36.490Z,62.31
2022-10-01T09:38:01.461Z,62.32
2022-10-01T09:39:21.736Z,64.54
2022-10-01T09:40:36.323Z,62.95
2022-10-01T09:41:38.585Z,62.15
2022-10-01T09:42:41.930Z,62.11
2022-10-01T09:43:45.294Z,61.71
2022-10-01T09:44:47.338Z,61.67
2022-10-01T09:45:50.748Z,61.85
2022-10-01T09:46:53.945Z,62.01
2022-10-01T09:47:59.622Z,61.67
2022-10-01T09:49:10.694Z,61.97
2022-10-01T09:50:18.173Z,62.55
2022-10-01T09:51:26.162Z,62.75
2022-10-01T09:52:35.646Z,62.29
2022-10-01T09:54:01.969Z,62.57
2022-10-01T09:55:11.069Z,62.46
2022-10-01T09:58:49.166Z,62.90
2022-10-01T10:00:07.758Z,62.98
2022-10-01T10:01:16.837Z,63.10
2022-10-01T10:03:46.569Z,65.30
2022-10-01T10:04:57.092Z,62.35
2022-10-01T10:06:00.273Z,62.16
2022-10-01T10:07:06.256Z,62.02
2022-10-01T10:08:13.890Z,62.26
2022-10-01T10:09:20.261Z,62.32
2022-10-01T10:10:28.636Z,61.83
2022-10-01T10:11:33.381Z,62.03
2022-10-01T10:12:35.957Z,62.05
2022-10-01T10:13:44.353Z,62.13
2022-10-01T10:14:46.298Z,61.49
2022-10-01T10:15:58.032Z,60.50
2022-10-01T10:17:12.389Z,60.87
2022-10-01T10:18:23.945Z,59.96
2022-10-01T10:19:27.527Z,59.10
2022-10-01T10:20:33.281Z,59.26
2022-10-01T10:21:35.743Z,58.64
2022-10-01T10:22:37.906Z,59.04
2022-10-01T10:23:52.890Z,59.06
2022-10-01T10:24:56.139Z,58.85
2022-10-01T10:26:05.977Z,58.94
2022-10-01T10:27:27.238Z,59.18
2022-10-01T10:28:44.117Z,59.19
2022-10-01T10:29:46.620Z,58.71
2022-10-01T10:30:54.355Z,59.08
2022-10-01T10:31:59.190Z,59.06
2022-10-01T10:33:06.390Z,58.99
2022-10-01T10:34:17.895Z,60.73
2022-10-01T10:35:25.934Z,59.06
2022-10-01T10:36:33.808Z,58.11
2022-10-01T10:37:39.262Z,57.90
2022-10-01T10:38:45.744Z,59.36
2022-10-01T10:39:50.524Z,57.98
2022-10-01T10:40:52.656Z,57.75
2022-10-01T10:42:00.984Z,59.78
2022-10-01T10:43:03.195Z,59.87
2022-10-01T10:44:08.869Z,60.58
2022-10-01T10:45:18.055Z,57.32
2022-10-01T10:46:27.116Z,59.76
2022-10-01T10:47:29.624Z,57.35
2022-10-01T10:48:35.150Z,57.24
2022-10-01T10:49:52.467Z,57.89
2022-10-01T10:51:03.194Z,58.98
2022-10-01T10:52:09.101Z,57.74
2022-10-01T10:53:26.407Z,57.92
2022-10-01T10:54:36.976Z,58.02
2022-10-01T10:55:39.079Z,58.45
2022-10-01T10:56:45.614Z,59.79
2022-10-01T10:57:48.393Z,58.84
2022-10-01T10:58:51.765Z,59.31
2022-10-01T10:59:57.687Z,58.70
2022-10-01T11:01:10.295Z,61.13
2022-10-01T11:02:16.295Z,57.64
2022-10-01T11:03:24.851Z,57.56
2022-10-01T11:04:39.165Z,57.57
2022-10-01T11:05:42.244Z,56.88
2022-10-01T11:06:49.216Z,57.23
2022-10-01T11:08:00.365Z,57.52
2022-10-01T11:09:05.901Z,57.50
2022-10-01T11:10:25.333Z,57.07
2022-10-01T11:11:56.509Z,56.31
2022-10-01T11:13:23.646Z,56.70
2022-10-01T11:14:54.877Z,57.26
2022-10-01T11:16:18.788Z,56.74
2022-10-01T11:18:59.997Z,57.35
2022-10-01T11:20:28.847Z,57.84
2022-10-01T11:22:05.204Z,57.83
2022-10-01T11:23:19.988Z,58.14
2022-10-01T11:24:37.623Z,57.97
2022-10-01T11:25:46.245Z,58.12
2022-10-01T11:26:54.544Z,58.53
2022-10-01T11:28:09.615Z,58.35
2022-10-01T11:29:24.723Z,58.11
2022-10-01T11:30:30.508Z,58.06
2022-10-01T11:31:39.558Z,58.28
2022-10-01T11:32:54.279Z,58.54
2022-10-01T11:34:05.613Z,58.44
2022-10-01T11:35:17.577Z,58.27
2022-10-01T11:36:36.055Z,58.55
2022-10-01T11:37:42.144Z,59.66
2022-10-01T11:38:54.148Z,60.67
2022-10-01T11:39:59.921Z,58.71
2022-10-01T11:41:27.019Z,58.71
2022-10-01T11:42:32.780Z,59.05
2022-10-01T11:43:41.352Z,61.53
2022-10-01T11:44:50.102Z,60.36
2022-10-01T11:45:55.901Z,62.83
2022-10-01T11:47:05.842Z,63.79
2022-10-01T11:48:29.567Z,60.29
2022-10-01T11:49:53.937Z,62.13
2022-10-01T11:50:59.577Z,59.94
2022-10-01T11:52:08.591Z,62.25
2022-10-01T11:53:35.473Z,63.45
2022-10-01T11:54:41.151Z,59.96
2022-10-01T11:57:09.239Z,60.97
2022-10-01T11:58:21.018Z,63.19
2022-10-01T11:59:37.819Z,61.36
2022-10-01T12:00:42.600Z,61.09
2022-10-01T12:02:07.309Z,61.22
2022-10-01T12:03:13.403Z,62.21
2022-10-01T12:04:33.500Z,61.57
2022-10-01T12:05:36.167Z,61.74
2022-10-01T12:06:50.732Z,62.41
2022-10-01T12:08:00.437Z,62.97
2022-10-01T12:09:09.010Z,64.49
2022-10-01T12:10:31.705Z,66.99
2022-10-01T12:11:56.953Z,62.56
2022-10-01T12:13:14.940Z,62.02
2022-10-01T12:15:47.214Z,62.33
2022-10-01T12:16:53.231Z,64.23
2022-10-01T12:18:02.612Z,64.99
2022-10-01T12:19:21.653Z,65.67
2022-10-01T12:20:39.394Z,62.11
2022-10-01T12:21:47.865Z,62.67
2022-10-01T12:22:52.411Z,64.02
2022-10-01T12:24:01.164Z,63.36
2022-10-01T12:25:05.050Z,63.44
2022-10-01T12:26:11.445Z,62.97
2022-10-01T12:27:38.541Z,62.84
2022-10-01T12:28:49.164Z,62.89
2022-10-01T12:29:55.565Z,63.08
2022-10-01T12:31:04.261Z,63.49
2022-10-01T12:32:23.230Z,64.56
2022-10-01T12:33:51.646Z,64.04
2022-10-01T12:35:07.295Z,63.95
2022-10-01T12:36:19.632Z,63.81
2022-10-01T12:37:38.501Z,65.08
2022-10-01T12:38:49.683Z,64.22
2022-10-01T12:40:04.413Z,63.75
2022-10-01T12:41:27.840Z,64.21
2022-10-01T12:42:53.530Z,64.40
2022-10-01T12:44:20.675Z,64.60
2022-10-01T12:45:42.036Z,65.11
2022-10-01T12:46:53.308Z,65.42
2022-10-01T12:48:11.404Z,65.59
2022-10-01T12:49:26.348Z,65.58
2022-10-01T12:50:42.151Z,66.68
2022-10-01T12:51:48.559Z,68.15
2022-10-01T12:53:04.068Z,68.36
2022-10-01T12:54:28.739Z,69.56
2022-10-01T12:55:44.018Z,68.89
2022-10-01T12:57:06.601Z,64.88
2022-10-01T12:58:38.049Z,66.12
2022-10-01T13:00:00.262Z,64.71
2022-10-01T13:01:09.194Z,65.58
2022-10-01T13:02:27.333Z,68.36
2022-10-01T13:03:44.563Z,68.54
2022-10-01T13:06:15.304Z,66.90
2022-10-01T13:07:24.378Z,65.93
2022-10-01T13:08:46.394Z,67.39
2022-10-01T13:10:18.209Z,67.71
2022-10-01T13:11:42.031Z,64.57
2022-10-01T13:13:00.056Z,64.81
2022-10-01T13:14:04.466Z,64.71
2022-10-01T13:15:16.548Z,64.41
2022-10-01T13:16:34.808Z,64.96
2022-10-01T13:17:41.788Z,65.12
2022-10-01T13:19:04.583Z,67.22
2022-10-01T13:20:14.591Z,67.16
2022-10-01T13:21:53.134Z,65.32
2022-10-01T13:23:13.922Z,64.89
2022-10-01T13:24:34.523Z,65.52
2022-10-01T13:25:56.884Z,67.29
2022-10-01T13:27:11.881Z,66.04
2022-10-01T13:28:27.703Z,64.84
2022-10-01T13:29:53.458Z,65.55
2022-10-01T13:31:02.167Z,65.34
2022-10-01T13:32:26.608Z,65.28
2022-10-01T13:33:33.267Z,65.70
2022-10-01T13:34:41.618Z,65.58
2022-10-01T13:35:47.146Z,65.64
2022-10-01T13:36:49.122Z,65.21
2022-10-01T13:37:55.438Z,65.64
2022-10-01T13:38:59.615Z,65.79
2022-10-01T13:40:03.281Z,66.04
2022-10-01T13:41:09.679Z,66.17
2022-10-01T13:42:27.103Z,66.92
2022-10-01T13:43:32.426Z,67.19
2022-10-01T13:44:36.118Z,66.49
2022-10-01T13:45:44.430Z,66.63
2022-10-01T13:47:05.888Z,65.96
2022-10-01T13:48:11.621Z,66.58
2022-10-01T13:49:20.102Z,66.75
2022-10-01T13:50:23.988Z,67.38
2022-10-01T13:51:37.531Z,67.44
2022-10-01T13:52:39.763Z,67.09
2022-10-01T13:53:45.601Z,66.76
2022-10-01T13:54:51.624Z,66.64
2022-10-01T13:55:54.523Z,66.96
2022-10-01T13:57:08.801Z,67.52
2022-10-01T13:58:45.317Z,66.69
2022-10-01T13:59:51.090Z,66.96
2022-10-01T14:00:56.526Z,67.30
2022-10-01T14:01:59.532Z,67.20
2022-10-01T14:03:08.995Z,67.05
2022-10-01T14:04:20.234Z,67.19
2022-10-01T14:05:25.764Z,67.53
2022-10-01T14:06:32.823Z,67.58
2022-10-01T14:07:39.162Z,68.18
2022-10-01T14:08:54.362Z,69.95
2022-10-01T14:10:00.162Z,68.57
2022-10-01T14:11:14.597Z,68.95
2022-10-01T14:12:26.499Z,69.18
2022-10-01T14:13:31.292Z,69.00
2022-10-01T14:14:40.748Z,69.42
2022-10-01T14:15:46.759Z,69.32
2022-10-01T14:16:49.641Z,69.89
2022-10-01T14:17:53.757Z,69.27
2022-10-01T14:18:56.008Z,69.33
2022-10-01T14:20:00.831Z,69.33
2022-10-01T14:21:13.105Z,69.40
2022-10-01T14:22:47.769Z,69.59
2022-10-01T14:24:05.833Z,69.84
2022-10-01T14:25:41.594Z,70.03
2022-10-01T14:26:57.632Z,70.25
2022-10-01T14:28:31.552Z,70.40
2022-10-01T14:29:50.810Z,69.82
2022-10-01T14:31:34.144Z,69.80
2022-10-01T14:34:24.329Z,69.02
2022-10-01T14:35:32.950Z,69.20
2022-10-01T14:36:44.409Z,68.73
2022-10-01T14:37:46.596Z,68.88
2022-10-01T14:38:48.616Z,68.95
2022-10-01T14:40:01.833Z,69.07
2022-10-01T14:41:04.427Z,69.23